createdAt,value
2023-01-25T00:01:53.414Z,15.00
2023-01-25T00:04:59.358Z,15.72
2023-01-25T00:08:06.738Z,17.42
2023-01-25T00:11:11.815Z,16.55
2023-01-25T00:14:17.789Z,16.48
2023-01-25T00:17:23.678Z,16.50
2023-01-25T00:20:30.360Z,14.68
2023-01-25T00:23:36.301Z,14.58
2023-01-25T00:26:44.677Z,16.60
2023-01-25T00:29:51.155Z,26.50
2023-01-25T00:33:08.285Z,21.45
2023-01-25T00:36:14.618Z,15.65
2023-01-25T00:39:20.737Z,20.43
2023-01-25T00:42:28.337Z,21.50
2023-01-25T00:45:34.475Z,16.32
2023-01-25T00:48:42.530Z,14.93
2023-01-25T00:51:48.497Z,15.48
2023-01-25T00:54:53.949Z,15.25
2023-01-25T00:57:59.951Z,19.52
2023-01-25T01:01:07.885Z,20.57
2023-01-25T01:04:13.383Z,20.25
2023-01-25T01:07:18.528Z,17.90
2023-01-25T01:10:24.303Z,16.40
2023-01-25T01:13:29.044Z,14.80
2023-01-25T01:16:36.152Z,15.98
2023-01-25T01:19:41.533Z,14.40
2023-01-25T01:22:47.900Z,15.43
2023-01-25T01:25:53.913Z,15.53
2023-01-25T01:29:00.417Z,15.25
2023-01-25T01:32:08.014Z,15.25
2023-01-25T01:35:14.140Z,15.00
2023-01-25T01:38:22.310Z,15.58
2023-01-25T01:41:28.300Z,15.65
2023-01-25T01:44:36.011Z,15.00
2023-01-25T01:47:56.689Z,17.02
2023-01-25T01:51:04.907Z,18.62
2023-01-25T01:54:31.539Z,18.17
2023-01-25T01:57:43.587Z,20.10
2023-01-25T02:00:53.570Z,19.05
2023-01-25T02:03:58.821Z,21.50
2023-01-25T02:07:14.797Z,19.92
2023-01-25T02:10:24.351Z,22.30
2023-01-25T02:13:31.140Z,19.07
2023-01-25T02:16:40.611Z,21.90
2023-01-25T02:20:21.482Z,18.90
2023-01-25T02:23:47.575Z,18.62
2023-01-25T02:26:54.837Z,18.30
2023-01-25T02:29:59.755Z,18.37
2023-01-25T02:33:05.312Z,18.27
2023-01-25T02:36:27.796Z,17.02
2023-01-25T02:39:34.540Z,16.00
2023-01-25T02:42:44.181Z,15.70
2023-01-25T02:45:50.347Z,16.02
2023-01-25T02:48:57.589Z,16.00
2023-01-25T02:52:05.549Z,16.70
2023-01-25T02:55:11.671Z,15.05
2023-01-25T02:58:19.507Z,14.38
2023-01-25T03:01:26.038Z,15.75
2023-01-25T03:04:32.227Z,15.63
2023-01-25T03:07:38.882Z,16.27
2023-01-25T03:10:44.824Z,20.68
2023-01-25T03:13:51.572Z,20.23
2023-01-25T03:16:57.947Z,17.23
2023-01-25T03:20:04.995Z,20.12
2023-01-25T03:23:11.750Z,34.43
2023-01-25T03:26:30.829Z,20.60
2023-01-25T03:29:39.994Z,20.00
2023-01-25T03:32:46.914Z,18.20
2023-01-25T03:35:53.929Z,25.75
2023-01-25T03:38:59.695Z,21.42
2023-01-25T03:42:06.518Z,30.92
2023-01-25T03:45:13.506Z,19.80
2023-01-25T03:48:19.665Z,17.37
2023-01-25T03:51:25.826Z,17.00
2023-01-25T03:54:32.065Z,16.25
2023-01-25T03:57:39.405Z,17.25
2023-01-25T04:00:46.682Z,23.32
2023-01-25T04:03:51.398Z,20.62
2023-01-25T04:06:57.979Z,18.90
2023-01-25T04:10:03.702Z,19.85
2023-01-25T04:13:12.328Z,19.62
2023-01-25T04:16:21.729Z,17.00
2023-01-25T04:19:32.078Z,17.42
2023-01-25T04:22:39.844Z,17.32
2023-01-25T04:25:45.527Z,17.80
2023-01-25T04:28:51.613Z,18.82
2023-01-25T04:31:58.539Z,18.27
2023-01-25T04:35:04.894Z,20.85
2023-01-25T04:38:11.244Z,21.27
2023-01-25T04:41:16.214Z,21.70
2023-01-25T04:44:21.963Z,16.45
2023-01-25T04:47:29.909Z,14.98
2023-01-25T04:50:36.806Z,15.23
2023-01-25T04:53:42.710Z,15.78
2023-01-25T04:56:49.046Z,15.40
2023-01-25T04:59:54.955Z,15.18
2023-01-25T05:03:00.090Z,14.83
2023-01-25T05:06:07.807Z,17.67
2023-01-25T05:09:13.058Z,17.17
2023-01-25T05:12:21.175Z,15.10
2023-01-25T05:15:31.144Z,14.18
2023-01-25T05:18:47.997Z,16.93
2023-01-25T05:22:03.769Z,15.65
2023-01-25T05:25:14.379Z,16.67
2023-01-25T05:28:21.090Z,17.32
2023-01-25T05:31:36.572Z,17.35
2023-01-25T05:34:31.217Z,17.55
2023-01-25T05:37:36.905Z,16.55
2023-01-25T05:40:44.362Z,17.50
2023-01-25T05:43:49.430Z,19.42
2023-01-25T05:46:57.285Z,16.85
2023-01-25T05:50:03.173Z,16.27
2023-01-25T05:53:29.005Z,19.80
2023-01-25T05:56:34.602Z,48.87
2023-01-25T05:59:42.404Z,44.83
2023-01-25T06:02:50.684Z,31.50
2023-01-25T06:05:57.421Z,35.55
2023-01-25T06:09:05.998Z,22.07
2023-01-25T06:12:13.767Z,57.03
2023-01-25T06:15:21.463Z,37.98
2023-01-25T06:18:30.601Z,30.72
2023-01-25T06:21:39.833Z,23.12
2023-01-25T06:24:46.744Z,16.20
2023-01-25T06:27:53.104Z,34.53
2023-01-25T06:30:59.823Z,27.93
2023-01-25T06:34:09.838Z,30.62
2023-01-25T06:37:16.169Z,19.37
2023-01-25T06:40:22.067Z,16.17
2023-01-25T06:43:28.256Z,14.87
2023-01-25T06:46:34.732Z,14.78
2023-01-25T06:49:40.570Z,15.05
2023-01-25T06:52:44.830Z,14.95
2023-01-25T06:55:52.842Z,15.78
2023-01-25T06:58:59.312Z,22.45
2023-01-25T07:02:05.657Z,15.63
2023-01-25T07:05:15.605Z,14.90
2023-01-25T07:08:21.639Z,15.65
2023-01-25T07:11:31.141Z,16.75
2023-01-25T07:14:36.733Z,16.55
2023-01-25T07:17:41.535Z,18.67
2023-01-25T07:20:51.073Z,15.60
2023-01-25T07:23:58.057Z,22.40
2023-01-25T07:27:08.889Z,18.07
2023-01-25T07:30:14.347Z,24.98
2023-01-25T07:33:19.267Z,30.17
2023-01-25T07:36:51.379Z,26.40
2023-01-25T07:39:59.157Z,21.55
2023-01-25T07:43:06.215Z,19.07
2023-01-25T07:46:21.633Z,20.80
2023-01-25T07:52:33.580Z,22.32
2023-01-25T07:55:40.522Z,20.50
2023-01-25T07:58:48.722Z,19.65
2023-01-25T08:01:54.532Z,22.48
2023-01-25T08:05:02.900Z,24.40
2023-01-25T08:08:09.237Z,18.35
2023-01-25T08:11:26.560Z,23.55
2023-01-25T08:14:33.453Z,17.30
2023-01-25T08:17:41.746Z,20.92
2023-01-25T08:20:48.826Z,17.05
2023-01-25T08:24:01.465Z,16.42
2023-01-25T08:27:08.737Z,20.20
2023-01-25T08:30:14.677Z,17.73
2023-01-25T08:33:20.767Z,18.17
2023-01-25T08:36:33.406Z,18.42
2023-01-25T08:39:39.412Z,17.80
2023-01-25T08:42:46.151Z,20.55
2023-01-25T08:45:51.108Z,18.10
2023-01-25T08:48:56.537Z,19.65
2023-01-25T08:52:02.215Z,19.98
2023-01-25T08:55:08.124Z,19.87
2023-01-25T08:58:15.409Z,21.65
2023-01-25T09:01:45.771Z,18.82
2023-01-25T09:04:53.039Z,19.35
2023-01-25T09:08:01.191Z,19.42
2023-01-25T09:11:08.916Z,18.65
2023-01-25T09:14:15.842Z,18.48
2023-01-25T09:17:23.808Z,25.08
2023-01-25T09:20:33.135Z,24.90
2023-01-25T09:23:50.702Z,22.20
2023-01-25T09:26:59.930Z,40.28
2023-01-25T09:30:13.519Z,18.95
2023-01-25T09:33:16.083Z,50.15
2023-01-25T09:36:24.714Z,23.70
2023-01-25T09:39:31.552Z,18.37
2023-01-25T09:43:10.896Z,15.80
2023-01-25T09:46:21.328Z,17.55
2023-01-25T09:49:47.378Z,16.80
2023-01-25T09:53:33.545Z,14.05
2023-01-25T09:56:44.286Z,14.95
2023-01-25T09:59:49.814Z,16.12
2023-01-25T10:03:11.834Z,15.48
2023-01-25T10:06:16.926Z,15.83
2023-01-25T10:09:58.416Z,15.70
2023-01-25T10:13:06.757Z,17.37
2023-01-25T10:16:28.527Z,18.07
2023-01-25T10:19:48.157Z,14.73
2023-01-25T10:23:02.919Z,15.05
2023-01-25T10:26:15.991Z,15.65
2023-01-25T10:29:31.407Z,14.30
2023-01-25T10:32:51.136Z,16.00
2023-01-25T10:35:53.459Z,17.50
2023-01-25T10:39:03.581Z,18.20
2023-01-25T10:42:16.966Z,18.02
2023-01-25T10:45:28.193Z,23.38
2023-01-25T10:48:40.702Z,18.15
2023-01-25T10:51:49.496Z,15.70
2023-01-25T10:54:57.382Z,27.42
2023-01-25T10:58:11.220Z,23.05
2023-01-25T11:01:18.376Z,17.33
2023-01-25T11:04:46.560Z,15.88
2023-01-25T11:07:53.531Z,16.10
2023-01-25T11:10:58.052Z,15.20
2023-01-25T11:14:03.942Z,16.75
2023-01-25T11:17:10.904Z,16.57
2023-01-25T11:20:33.787Z,16.25
2023-01-25T11:26:50.368Z,23.12
2023-01-25T11:29:57.845Z,23.73
2023-01-25T11:33:03.211Z,20.60
2023-01-25T11:36:42.048Z,22.42
2023-01-25T11:40:25.654Z,21.00
2023-01-25T11:43:58.769Z,27.70
2023-01-25T11:47:57.110Z,17.85
2023-01-25T11:51:13.849Z,21.42
2023-01-25T11:54:44.456Z,17.45
2023-01-25T11:58:16.848Z,18.40
2023-01-25T12:01:51.191Z,20.25
2023-01-25T12:05:26.992Z,18.92
2023-01-25T12:08:47.656Z,17.70
2023-01-25T12:12:14.210Z,18.02
2023-01-25T12:15:34.988Z,25.82
2023-01-25T12:18:51.016Z,23.47
2023-01-25T12:22:21.989Z,26.52
2023-01-25T12:25:49.880Z,22.52
2023-01-25T12:29:18.233Z,19.30
2023-01-25T12:32:48.147Z,20.95
2023-01-25T12:36:09.001Z,22.52
2023-01-25T12:39:29.374Z,24.27
2023-01-25T12:42:40.511Z,22.80
2023-01-25T12:45:51.982Z,36.58
2023-01-25T12:49:01.781Z,26.12
2023-01-25T12:52:07.893Z,23.75
2023-01-25T12:55:19.791Z,25.17
2023-01-25T12:58:59.848Z,24.85
2023-01-25T13:02:31.288Z,34.25
2023-01-25T13:06:05.448Z,31.40
2023-01-25T13:09:31.233Z,26.30
2023-01-25T13:12:37.263Z,23.15
2023-01-25T13:15:57.070Z,32.13
2023-01-25T13:19:05.172Z,44.60
2023-01-25T13:22:12.685Z,35.88
2023-01-25T13:25:21.679Z,46.00
2023-01-25T13:28:57.556Z,35.17
2023-01-25T13:32:04.006Z,33.60
2023-01-25T13:35:12.145Z,32.13
2023-01-25T13:38:24.318Z,32.70
2023-01-25T13:41:34.632Z,30.85
2023-01-25T13:44:50.792Z,32.17
2023-01-25T13:47:57.477Z,32.70
2023-01-25T13:51:11.365Z,32.53
2023-01-25T13:54:18.300Z,32.35
2023-01-25T13:57:29.333Z,33.13
2023-01-25T14:00:36.392Z,32.78
2023-01-25T14:03:57.172Z,32.45
2023-01-25T14:07:02.325Z,31.05
2023-01-25T14:10:08.975Z,31.33
2023-01-25T14:13:14.761Z,33.65
2023-01-25T14:16:24.638Z,33.15
2023-01-25T14:19:43.214Z,33.10
2023-01-25T14:22:49.571Z,35.05
2023-01-25T14:25:56.591Z,39.60
2023-01-25T14:29:11.512Z,34.40
2023-01-25T14:32:15.565Z,32.25
2023-01-25T14:36:03.482Z,29.12
2023-01-25T14:39:06.852Z,27.93
2023-01-25T14:42:12.782Z,31.45
2023-01-25T14:45:19.346Z,30.32
2023-01-25T14:48:54.334Z,29.32
2023-01-25T14:52:23.022Z,29.52
2023-01-25T14:55:29.768Z,28.90
2023-01-25T14:58:41.103Z,32.50
2023-01-25T15:01:53.847Z,30.57
2023-01-25T15:05:18.151Z,28.65
2023-01-25T15:08:29.502Z,26.70
2023-01-25T15:11:56.839Z,25.48
2023-01-25T15:15:07.425Z,26.12
2023-01-25T15:18:12.814Z,29.63
2023-01-25T15:21:17.813Z,28.40
2023-01-25T15:24:24.540Z,27.27
2023-01-25T15:27:31.173Z,28.05
2023-01-25T15:30:36.823Z,25.02
2023-01-25T15:33:46.263Z,27.25
2023-01-25T15:36:51.978Z,25.45
2023-01-25T15:39:58.537Z,27.93
2023-01-25T15:43:04.307Z,28.38
2023-01-25T15:46:11.931Z,28.73
2023-01-25T15:49:18.479Z,27.77
2023-01-25T15:52:24.500Z,26.17
2023-01-25T15:55:30.775Z,24.95
2023-01-25T15:58:41.405Z,25.08
2023-01-25T16:01:46.572Z,25.88
2023-01-25T16:04:52.875Z,25.37
2023-01-25T16:07:58.045Z,26.25
2023-01-25T16:11:05.272Z,26.12
2023-01-25T16:14:11.060Z,25.70
2023-01-25T16:17:17.752Z,25.70
2023-01-25T16:20:24.204Z,27.40
2023-01-25T16:23:31.308Z,25.30
2023-01-25T16:26:41.069Z,26.82
2023-01-25T16:29:46.403Z,29.75
2023-01-25T16:32:51.488Z,26.42
2023-01-25T16:35:56.297Z,27.75
2023-01-25T16:39:03.522Z,26.50
2023-01-25T16:42:11.572Z,27.20
2023-01-25T16:45:19.935Z,33.65
2023-01-25T16:48:27.932Z,30.52
2023-01-25T16:51:39.263Z,27.55
2023-01-25T16:54:45.833Z,24.45
2023-01-25T16:57:52.915Z,23.83
2023-01-25T17:00:59.566Z,28.10
2023-01-25T17:04:05.439Z,26.15
2023-01-25T17:07:10.392Z,26.15
2023-01-25T17:10:17.579Z,35.60
2023-01-25T17:13:24.583Z,30.68
2023-01-25T17:16:32.779Z,28.32
2023-01-25T17:19:39.060Z,29.70
2023-01-25T17:22:47.294Z,30.08
2023-01-25T17:25:56.424Z,30.50
2023-01-25T17:29:02.781Z,29.75
2023-01-25T17:32:08.576Z,27.15
2023-01-25T17:35:14.009Z,26.82
2023-01-25T17:38:19.175Z,28.87
2023-01-25T17:41:27.137Z,30.37
2023-01-25T17:44:37.629Z,26.62
2023-01-25T17:47:45.109Z,26.60
2023-01-25T17:50:53.908Z,30.65
2023-01-25T17:53:59.647Z,27.40
2023-01-25T17:57:06.017Z,27.98
2023-01-25T18:00:13.928Z,28.57
2023-01-25T18:03:19.939Z,28.73
2023-01-25T18:06:26.673Z,29.30
2023-01-25T18:09:32.265Z,33.60
2023-01-25T18:12:37.798Z,35.13
2023-01-25T18:15:43.163Z,33.75
2023-01-25T18:18:52.548Z,33.55
2023-01-25T18:21:59.072Z,45.78
2023-01-25T18:25:08.521Z,33.20
2023-01-25T18:28:15.374Z,53.60
2023-01-25T18:31:23.819Z,45.73
2023-01-25T18:34:29.494Z,35.15
2023-01-25T18:37:37.031Z,35.08
2023-01-25T18:40:46.342Z,40.38
2023-01-25T18:43:54.930Z,36.70
2023-01-25T18:47:01.170Z,33.53
2023-01-25T18:50:07.851Z,32.90
2023-01-25T18:53:14.470Z,30.62
2023-01-25T18:56:29.961Z,28.38
2023-01-25T18:59:29.724Z,27.95
2023-01-25T19:02:24.369Z,28.87
2023-01-25T19:05:29.732Z,28.60
2023-01-25T19:08:36.224Z,28.77
2023-01-25T19:11:40.797Z,28.57
2023-01-25T19:14:47.541Z,26.95
2023-01-25T19:17:54.579Z,28.32
2023-01-25T19:21:03.274Z,25.82
2023-01-25T19:24:09.264Z,26.62
2023-01-25T19:27:15.848Z,24.65
2023-01-25T19:30:25.164Z,28.95
2023-01-25T19:33:31.513Z,28.27
2023-01-25T19:36:38.731Z,26.77
2023-01-25T19:39:45.895Z,26.10
2023-01-25T19:42:50.997Z,25.80
2023-01-25T19:45:58.165Z,26.95
2023-01-25T19:49:05.205Z,25.65
2023-01-25T19:52:13.147Z,26.40
2023-01-25T19:55:22.679Z,24.95
2023-01-25T19:58:29.891Z,25.32
2023-01-25T20:01:38.216Z,26.05
2023-01-25T20:04:44.621Z,25.27
2023-01-25T20:07:53.421Z,26.20
2023-01-25T20:11:00.771Z,26.82
2023-01-25T20:14:07.884Z,28.02
2023-01-25T20:17:14.206Z,26.40
2023-01-25T20:20:20.017Z,28.02
2023-01-25T20:23:26.068Z,29.50
2023-01-25T20:26:34.930Z,27.20
2023-01-25T20:29:42.189Z,27.45
2023-01-25T20:32:47.292Z,28.60
2023-01-25T20:35:54.391Z,28.38
2023-01-25T20:38:59.757Z,27.65
2023-01-25T20:42:07.018Z,28.50
2023-01-25T20:45:13.155Z,26.07
2023-01-25T20:48:19.895Z,27.45
2023-01-25T20:51:28.272Z,26.37
2023-01-25T20:54:35.795Z,25.90
2023-01-25T20:57:44.016Z,25.97
2023-01-25T21:00:52.159Z,26.20
2023-01-25T21:04:00.997Z,25.52
2023-01-25T21:07:06.952Z,26.00
2023-01-25T21:10:12.356Z,25.23
2023-01-25T21:13:17.447Z,25.45
2023-01-25T21:16:31.286Z,25.43
2023-01-25T21:19:37.135Z,24.98
2023-01-25T21:22:44.266Z,25.85
2023-01-25T21:25:51.284Z,25.17
2023-01-25T21:28:56.880Z,27.05
2023-01-25T21:32:05.514Z,26.12
2023-01-25T21:35:11.433Z,26.52
2023-01-25T21:38:16.985Z,26.12
2023-01-25T21:41:29.005Z,26.25
2023-01-25T21:44:53.433Z,26.45
2023-01-25T21:48:00.299Z,27.15
2023-01-25T21:51:23.685Z,26.25
2023-01-25T21:54:40.000Z,26.45
2023-01-25T21:57:48.366Z,24.95
2023-01-25T22:00:53.925Z,27.48
2023-01-25T22:04:05.083Z,26.60
2023-01-25T22:07:11.334Z,26.93
2023-01-25T22:10:17.096Z,28.52
2023-01-25T22:13:23.557Z,25.12
2023-01-25T22:16:31.348Z,27.13
2023-01-25T22:19:37.049Z,27.60
2023-01-25T22:22:42.693Z,27.25
2023-01-25T22:25:49.531Z,25.97
2023-01-25T22:29:08.986Z,28.83
2023-01-25T22:32:15.470Z,26.85
2023-01-25T22:35:23.024Z,28.32
2023-01-25T22:38:27.998Z,29.05
2023-01-25T22:41:35.929Z,26.62
2023-01-25T22:44:42.161Z,29.60
2023-01-25T22:47:49.431Z,29.85
2023-01-25T22:50:55.069Z,28.47
2023-01-25T22:54:00.657Z,28.15
2023-01-25T22:57:07.799Z,28.60
2023-01-25T23:00:12.742Z,28.30
2023-01-25T23:03:18.241Z,27.55
2023-01-25T23:06:26.484Z,27.40
2023-01-25T23:09:31.654Z,28.77
2023-01-25T23:12:36.529Z,28.38
2023-01-25T23:15:43.596Z,27.42
2023-01-25T23:19:00.428Z,29.50
2023-01-25T23:22:09.878Z,27.58
2023-01-25T23:25:16.943Z,27.58
2023-01-25T23:28:22.233Z,26.68
2023-01-25T23:31:31.552Z,25.88
2023-01-25T23:34:39.304Z,26.12
2023-01-25T23:37:44.136Z,24.72
2023-01-25T23:40:50.891Z,24.92
2023-01-25T23:43:55.696Z,24.20
2023-01-25T23:47:02.139Z,23.22
2023-01-25T23:50:08.332Z,25.15
2023-01-25T23:53:14.415Z,25.80
2023-01-25T23:56:26.476Z,25.70
2023-01-25T23:59:32.640Z,25.75
